Time;durP1;ratioP1;P1;durP2;ratioP2;P2;SDS_P1;SDS_P2;PMS_P1;PMS_P2;Temp;Humidity;BMP_temperature;BMP_pressure;BME280_temperature;BME280_humidity;BME280_pressure;Samples;Min_cycle;Max_cycle;Signal;HPM_P1;HPM_P2
2022/12/13 00:00:44;;;;;;;10.33;5.80;;;;;;;-142.25;100.00;58004.16;5032566;28;20422;-58
2022/12/13 00:03:10;;;;;;;13.37;5.77;;;;;;;-142.25;100.00;58004.16;5034282;28;20141;-59
2022/12/13 00:05:43;;;;;;;13.60;6.60;;;;;;;-142.25;100.00;58004.16;5033592;28;20056;-58
2022/12/13 00:08:08;;;;;;;21.70;8.73;;;;;;;-142.25;100.00;58004.16;5034268;28;20037;-58
2022/12/13 00:10:34;;;;;;;15.47;8.27;;;;;;;-142.25;100.00;58004.16;5032439;28;20047;-58
2022/12/13 00:13:00;;;;;;;14.80;6.70;;;;;;;-142.25;100.00;58004.16;5032302;28;20503;-59
2022/12/13 00:15:25;;;;;;;10.23;5.67;;;;;;;-142.25;100.00;58004.16;5034042;28;20056;-58
2022/12/13 00:17:51;;;;;;;11.27;5.47;;;;;;;-142.25;100.00;58004.16;5034912;28;20049;-58
2022/12/13 00:20:16;;;;;;;10.37;5.80;;;;;;;-142.25;100.00;58004.16;5034395;28;20045;-58
2022/12/13 00:22:42;;;;;;;12.03;5.40;;;;;;;-142.25;100.00;58004.16;5033050;28;20052;-55
2022/12/13 00:25:08;;;;;;;8.80;5.10;;;;;;;-142.25;100.00;58004.16;5035880;28;20045;-60
2022/12/13 00:27:33;;;;;;;10.47;5.30;;;;;;;-142.25;100.00;58004.16;5034541;28;20033;-59
2022/12/13 00:29:59;;;;;;;14.57;5.10;;;;;;;-142.25;100.00;58004.16;5032314;28;20044;-56
2022/12/13 00:32:24;;;;;;;7.03;4.13;;;;;;;-142.25;100.00;58004.16;5034921;28;20037;-60
2022/12/13 00:34:50;;;;;;;8.97;5.30;;;;;;;-142.25;100.00;58004.16;5033527;28;20056;-59
2022/12/13 00:37:16;;;;;;;8.50;5.03;;;;;;;-142.25;100.00;58004.16;5033659;28;20037;-58
2022/12/13 00:39:42;;;;;;;10.73;5.07;;;;;;;-142.25;100.00;58004.16;5032966;28;20118;-58
2022/12/13 00:42:07;;;;;;;11.57;5.07;;;;;;;-142.25;100.00;58004.16;5033058;28;20090;-59
2022/12/13 00:44:33;;;;;;;11.90;6.17;;;;;;;-142.25;100.00;58004.16;5033413;28;20111;-54
2022/12/13 00:46:59;;;;;;;8.33;4.93;;;;;;;-142.25;100.00;58004.16;5033161;28;20083;-58
2022/12/13 00:49:26;;;;;;;7.90;4.67;;;;;;;-142.25;100.00;58004.16;5032498;28;20053;-58
2022/12/13 00:51:51;;;;;;;7.73;4.93;;;;;;;-142.25;100.00;58004.16;5032123;28;20044;-59
2022/12/13 00:54:17;;;;;;;6.90;4.03;;;;;;;-142.25;100.00;58004.16;5041680;28;20041;-57
2022/12/13 00:56:43;;;;;;;8.07;4.47;;;;;;;-142.25;100.00;58004.16;5033643;28;20049;-58
2022/12/13 00:59:12;;;;;;;9.23;5.00;;;;;;;-142.25;100.00;58004.16;5032935;28;20045;-58
2022/12/13 01:01:37;;;;;;;9.47;5.10;;;;;;;-142.25;100.00;58004.16;5033430;28;20041;-59
2022/12/13 01:04:05;;;;;;;8.80;5.53;;;;;;;-142.25;100.00;58004.16;5031522;28;20056;-58
2022/12/13 01:06:37;;;;;;;11.23;5.10;;;;;;;-142.25;100.00;58004.16;5031833;28;20057;-58
2022/12/13 01:09:06;;;;;;;13.10;5.30;;;;;;;-142.25;100.00;58004.16;5033810;28;20045;-59
2022/12/13 01:11:32;;;;;;;14.20;5.13;;;;;;;-142.25;100.00;58004.16;5028859;28;20041;-59
2022/12/13 01:13:58;;;;;;;9.73;4.87;;;;;;;-142.25;100.00;58004.16;5026118;28;20045;-59
2022/12/13 01:16:24;;;;;;;10.97;5.33;;;;;;;-142.25;100.00;58004.16;5034086;28;20071;-59
2022/12/13 01:18:49;;;;;;;11.33;5.50;;;;;;;-142.25;100.00;58004.16;5032426;28;20128;-64
2022/12/13 01:21:17;;;;;;;11.33;5.67;;;;;;;-142.25;100.00;58004.16;5025189;28;20727;-59
2022/12/13 01:23:44;;;;;;;12.23;6.07;;;;;;;-142.25;100.00;58004.16;5030097;28;20099;-60
2022/12/13 01:26:15;;;;;;;14.27;7.27;;;;;;;-142.25;100.00;58004.16;5036521;28;20119;-58
2022/12/13 01:28:41;;;;;;;15.37;5.77;;;;;;;-142.25;100.00;58004.16;5038424;28;20142;-57
2022/12/13 01:31:10;;;;;;;13.07;6.57;;;;;;;-142.25;100.00;58004.16;5036275;28;20137;-61
2022/12/13 01:33:36;;;;;;;11.57;5.60;;;;;;;-142.25;100.00;58004.16;5039449;28;20069;-58
2022/12/13 01:36:07;;;;;;;12.43;5.97;;;;;;;-142.25;100.00;58004.16;5039610;28;20037;-60
2022/12/13 01:38:34;;;;;;;7.83;4.50;;;;;;;-142.25;100.00;58004.16;5040295;28;20496;-57
2022/12/13 01:40:59;;;;;;;10.30;5.40;;;;;;;-142.25;100.00;58004.16;5036415;28;20053;-58
2022/12/13 01:43:48;;;;;;;10.23;5.63;;;;;;;-142.25;100.00;58004.16;5037594;28;20059;-63
2022/12/13 01:46:15;;;;;;;11.63;5.90;;;;;;;-142.25;100.00;58004.16;5035104;28;20029;-56
2022/12/13 01:48:56;;;;;;;12.23;6.67;;;;;;;-142.25;100.00;58004.16;5034593;28;20276;-58
2022/12/13 01:51:29;;;;;;;10.07;5.60;;;;;;;-142.25;100.00;58004.16;5036148;28;20045;-58
2022/12/13 01:53:58;;;;;;;13.43;4.93;;;;;;;-142.25;100.00;58004.16;5036328;28;20056;-58
2022/12/13 01:56:29;;;;;;;10.47;5.23;;;;;;;-142.25;100.00;58004.16;5035356;28;20053;-58
2022/12/13 01:58:56;;;;;;;7.33;4.63;;;;;;;-142.25;100.00;58004.16;5035846;28;20044;-58
2022/12/13 02:01:23;;;;;;;6.97;3.77;;;;;;;-142.25;100.00;58004.16;5032981;28;20056;-58
2022/12/13 02:03:49;;;;;;;11.50;5.03;;;;;;;-142.25;100.00;58004.16;5029814;28;20041;-60
2022/12/13 02:06:22;;;;;;;7.97;4.10;;;;;;;-142.25;100.00;58004.16;5031242;28;20111;-58
2022/12/13 02:08:48;;;;;;;9.27;3.53;;;;;;;-142.25;100.00;58004.16;5035553;28;20488;-58
2022/12/13 02:11:14;;;;;;;7.77;4.20;;;;;;;-142.25;100.00;58004.16;5034545;28;20057;-60
2022/12/13 02:13:40;;;;;;;8.00;4.17;;;;;;;-142.25;100.00;58004.16;5034453;28;20503;-58
2022/12/13 02:16:14;;;;;;;7.10;3.70;;;;;;;-142.25;100.00;58004.16;5037029;28;20048;-58
2022/12/13 02:18:39;;;;;;;8.33;3.77;;;;;;;-142.25;100.00;58004.16;5035978;28;20048;-58
2022/12/13 02:21:31;;;;;;;8.90;3.43;;;;;;;-142.25;100.00;58004.16;5035316;28;20037;-59
2022/12/13 02:24:28;;;;;;;6.37;3.80;;;;;;;-142.25;100.00;58004.16;5038467;28;20558;-62
2022/12/13 02:27:11;;;;;;;10.03;4.53;;;;;;;-142.25;100.00;58004.16;5042278;28;20037;-58
2022/12/13 02:29:58;;;;;;;12.57;5.23;;;;;;;-142.25;100.00;58004.16;5041327;28;20075;-58
2022/12/13 02:32:51;;;;;;;10.60;4.50;;;;;;;-142.25;100.00;58004.16;5041479;28;20044;-59
2022/12/13 02:35:30;;;;;;;10.23;4.90;;;;;;;-142.25;100.00;58004.16;5036464;28;20040;-58
2022/12/13 02:38:04;;;;;;;7.97;4.53;;;;;;;-142.25;100.00;58004.16;5036800;28;20052;-58
2022/12/13 02:41:02;;;;;;;8.70;4.47;;;;;;;-142.25;100.00;58004.16;5037319;28;20041;-58
2022/12/13 02:43:37;;;;;;;9.30;4.27;;;;;;;-142.25;100.00;58004.16;5032745;28;20037;-58
2022/12/13 02:46:06;;;;;;;8.13;4.17;;;;;;;-142.25;100.00;58004.16;5035232;28;20037;-58
2022/12/13 02:48:36;;;;;;;8.27;4.50;;;;;;;-142.25;100.00;58004.16;5034899;28;20585;-57
2022/12/13 02:51:04;;;;;;;9.87;4.27;;;;;;;-142.25;100.00;58004.16;5034678;28;20051;-57
2022/12/13 02:53:32;;;;;;;8.00;3.67;;;;;;;-142.25;100.00;58004.16;5034820;28;20126;-58
2022/12/13 02:55:57;;;;;;;8.97;3.83;;;;;;;-142.25;100.00;58004.16;5036262;28;20049;-58
2022/12/13 02:58:31;;;;;;;7.87;4.37;;;;;;;-142.25;100.00;58004.16;5034143;28;20099;-57
2022/12/13 03:01:05;;;;;;;10.57;4.17;;;;;;;-142.25;100.00;58004.16;5033379;28;20067;-58
2022/12/13 03:03:53;;;;;;;10.15;4.60;;;;;;;-142.25;100.00;58004.16;5033418;28;20484;-56
2022/12/13 03:06:46;;;;;;;9.40;4.57;;;;;;;-142.25;100.00;58004.16;5041063;28;20047;-58
2022/12/13 03:09:24;;;;;;;11.00;5.27;;;;;;;-142.25;100.00;58004.16;5028998;28;20127;-58
2022/12/13 03:14:53;;;;;;;9.67;4.57;;;;;;;-142.25;100.00;58004.16;5032817;28;20071;-58
2022/12/13 03:17:22;;;;;;;8.93;4.90;;;;;;;-142.25;100.00;58004.16;5034172;28;20068;-58
2022/12/13 03:19:51;;;;;;;6.27;4.03;;;;;;;-142.25;100.00;58004.16;5034012;28;20095;-58
2022/12/13 03:22:17;;;;;;;9.90;4.27;;;;;;;-142.25;100.00;58004.16;5034435;28;20052;-58
2022/12/13 03:24:42;;;;;;;7.27;4.00;;;;;;;-142.25;100.00;58004.16;5033816;28;20064;-60
2022/12/13 03:27:08;;;;;;;8.20;4.27;;;;;;;-142.25;100.00;58004.16;5035000;28;20210;-58
2022/12/13 03:29:33;;;;;;;7.17;3.70;;;;;;;-142.25;100.00;58004.16;5033220;28;20485;-58
2022/12/13 03:31:59;;;;;;;11.73;4.77;;;;;;;-142.25;100.00;58004.16;5034238;28;20052;-58
2022/12/13 03:34:25;;;;;;;8.77;3.93;;;;;;;-142.25;100.00;58004.16;5034931;28;20464;-58
2022/12/13 03:36:52;;;;;;;9.80;3.90;;;;;;;-142.25;100.00;58004.16;5033668;28;20476;-58
2022/12/13 03:39:18;;;;;;;6.43;3.50;;;;;;;-142.25;100.00;58004.16;5034435;28;20063;-59
2022/12/13 03:41:44;;;;;;;8.97;4.17;;;;;;;-142.25;100.00;58004.16;5035013;28;20164;-58
2022/12/13 03:44:10;;;;;;;9.87;3.73;;;;;;;-142.25;100.00;58004.16;5034888;28;20579;-59
2022/12/13 03:46:36;;;;;;;9.03;4.27;;;;;;;-142.25;100.00;58004.16;5033957;28;20052;-57
2022/12/13 03:49:02;;;;;;;9.73;5.47;;;;;;;-142.25;100.00;58004.16;5035894;28;20503;-58
2022/12/13 03:51:28;;;;;;;8.40;3.83;;;;;;;-142.25;100.00;58004.16;5034181;28;20075;-59
2022/12/13 03:53:53;;;;;;;6.27;3.40;;;;;;;-142.25;100.00;58004.16;5036578;28;20038;-59
2022/12/13 03:56:19;;;;;;;7.93;3.40;;;;;;;-142.25;100.00;58004.16;5036170;28;20033;-58
2022/12/13 03:58:44;;;;;;;5.07;3.40;;;;;;;-142.25;100.00;58004.16;5032225;28;20160;-58
2022/12/13 04:01:13;;;;;;;6.57;3.40;;;;;;;-142.25;100.00;58004.16;5029631;28;20041;-57
2022/12/13 04:03:40;;;;;;;10.03;3.80;;;;;;;-142.25;100.00;58004.16;5032418;28;20052;-58
2022/12/13 04:06:07;;;;;;;10.73;4.10;;;;;;;-142.25;100.00;58004.16;5034707;28;20116;-59
2022/12/13 04:08:34;;;;;;;10.40;4.17;;;;;;;-142.25;100.00;58004.16;5043254;28;20049;-57
2022/12/13 04:13:31;;;;;;;14.50;4.33;;;;;;;-142.25;100.00;58004.16;5036044;28;20057;-58
2022/12/13 04:13:45;;;;;;;10.27;4.57;;;;;;;-142.25;100.00;58004.16;5035075;28;20045;-62
2022/12/13 04:16:10;;;;;;;9.60;4.33;;;;;;;-142.25;100.00;58004.16;5035585;28;20566;-58
2022/12/13 04:18:36;;;;;;;10.47;4.80;;;;;;;-142.25;100.00;58004.16;5034766;28;20152;-59
2022/12/13 04:21:02;;;;;;;7.90;4.03;;;;;;;-142.25;100.00;58004.16;5036235;28;20128;-61
2022/12/13 04:23:28;;;;;;;9.47;4.03;;;;;;;-142.25;100.00;58004.16;5020497;28;20056;-57
2022/12/13 04:25:53;;;;;;;10.87;4.33;;;;;;;-142.25;100.00;58004.16;5043067;28;20044;-59
2022/12/13 04:28:19;;;;;;;9.07;4.20;;;;;;;-142.25;100.00;58004.16;5034678;28;20045;-59
2022/12/13 04:30:44;;;;;;;6.47;3.60;;;;;;;-142.25;100.00;58004.16;5033660;28;20049;-59
2022/12/13 04:33:10;;;;;;;9.07;4.97;;;;;;;-142.25;100.00;58004.16;5032306;28;20050;-60
2022/12/13 04:35:36;;;;;;;7.33;3.70;;;;;;;-142.25;100.00;58004.16;5034255;28;20512;-58
2022/12/13 04:38:01;;;;;;;6.10;3.47;;;;;;;-142.25;100.00;58004.16;5034748;28;20106;-58
2022/12/13 04:40:27;;;;;;;6.87;3.77;;;;;;;-142.25;100.00;58004.16;5033194;28;20049;-58
2022/12/13 04:42:53;;;;;;;8.93;3.73;;;;;;;-142.25;100.00;58004.16;5032082;28;20045;-59
2022/12/13 04:45:20;;;;;;;9.53;3.57;;;;;;;-142.25;100.00;58004.16;5031527;28;20452;-59
2022/12/13 04:47:45;;;;;;;10.37;4.00;;;;;;;-142.25;100.00;58004.16;5029747;28;20106;-58
2022/12/13 04:50:11;;;;;;;5.50;3.43;;;;;;;-142.25;100.00;58004.16;5026490;28;20047;-58
2022/12/13 04:52:38;;;;;;;5.87;3.60;;;;;;;-142.25;100.00;58004.16;5027982;28;20045;-57
2022/12/13 04:55:06;;;;;;;6.50;3.27;;;;;;;-142.25;100.00;58004.16;5033035;28;20036;-59
2022/12/13 04:57:31;;;;;;;12.20;3.70;;;;;;;-142.25;100.00;58004.16;5031474;28;20051;-59
2022/12/13 04:59:57;;;;;;;7.57;3.70;;;;;;;-142.25;100.00;58004.16;5032861;28;20395;-59
2022/12/13 05:02:22;;;;;;;10.67;4.70;;;;;;;-142.25;100.00;58004.16;5031851;28;20120;-59
2022/12/13 05:04:48;;;;;;;13.30;5.97;;;;;;;-142.25;100.00;58004.16;5033170;28;20053;-58
2022/12/13 05:07:14;;;;;;;13.33;5.33;;;;;;;-142.25;100.00;58004.16;5032719;28;20442;-59
2022/12/13 05:09:40;;;;;;;9.30;5.53;;;;;;;-142.25;100.00;58004.16;5031680;28;20075;-60
2022/12/13 05:12:05;;;;;;;10.67;4.13;;;;;;;-142.25;100.00;58004.16;5031550;28;20041;-58
2022/12/13 05:14:32;;;;;;;11.87;5.03;;;;;;;-142.25;100.00;58004.16;5033491;28;20562;-58
2022/12/13 05:16:59;;;;;;;15.63;4.60;;;;;;;-142.25;100.00;58004.16;5030325;28;20045;-59
2022/12/13 05:19:25;;;;;;;7.37;3.83;;;;;;;-142.25;100.00;58004.16;5031761;28;20106;-58
2022/12/13 05:21:51;;;;;;;10.17;4.23;;;;;;;-142.25;100.00;58004.16;5032299;28;20136;-59
2022/12/13 05:24:16;;;;;;;11.00;3.97;;;;;;;-142.25;100.00;58004.16;5033007;28;20220;-58
2022/12/13 05:26:42;;;;;;;9.70;4.03;;;;;;;-142.25;100.00;58004.16;5032389;28;20049;-59
2022/12/13 05:29:07;;;;;;;12.97;4.17;;;;;;;-142.25;100.00;58004.16;5033076;28;20399;-58
2022/12/13 05:31:33;;;;;;;12.33;5.23;;;;;;;-142.25;100.00;58004.16;5034645;28;20046;-59
2022/12/13 05:33:58;;;;;;;17.00;8.27;;;;;;;-142.25;100.00;58004.16;5035892;28;20419;-60
2022/12/13 05:36:24;;;;;;;23.30;10.10;;;;;;;-142.25;100.00;58004.16;5033702;28;20439;-59
2022/12/13 05:38:51;;;;;;;32.57;11.83;;;;;;;-142.25;100.00;58004.16;5033186;28;20037;-59
2022/12/13 05:41:21;;;;;;;26.87;10.17;;;;;;;-142.25;100.00;58004.16;5032063;28;20052;-61
2022/12/13 05:43:46;;;;;;;32.53;11.73;;;;;;;-142.25;100.00;58004.16;5028834;28;20069;-59
2022/12/13 05:46:12;;;;;;;32.33;12.23;;;;;;;-142.25;100.00;58004.16;5024894;28;20787;-59
2022/12/13 05:48:39;;;;;;;31.10;12.50;;;;;;;-142.25;100.00;58004.16;5037358;28;20115;-58
2022/12/13 05:51:05;;;;;;;24.23;10.67;;;;;;;-142.25;100.00;58004.16;5031234;28;20501;-59
2022/12/13 05:53:31;;;;;;;18.73;7.73;;;;;;;-142.25;100.00;58004.16;5034391;28;20044;-60
2022/12/13 05:56:01;;;;;;;17.33;8.00;;;;;;;-142.25;100.00;58004.16;5029207;28;20100;-59
2022/12/13 05:58:27;;;;;;;14.70;7.57;;;;;;;-142.25;100.00;58004.16;5037233;28;20068;-55
2022/12/13 06:00:53;;;;;;;14.17;6.57;;;;;;;-142.25;100.00;58004.16;5032816;28;20038;-55
2022/12/13 06:03:19;;;;;;;13.10;5.63;;;;;;;-142.25;100.00;58004.16;5032715;28;20100;-55
2022/12/13 06:05:45;;;;;;;9.47;5.07;;;;;;;-142.25;100.00;58004.16;5040253;28;20060;-55
2022/12/13 06:08:10;;;;;;;14.87;5.23;;;;;;;-142.25;100.00;58004.16;5032495;28;20041;-57
2022/12/13 06:10:36;;;;;;;14.97;6.70;;;;;;;-142.25;100.00;58004.16;5034375;28;20045;-60
2022/12/13 06:13:03;;;;;;;8.57;4.63;;;;;;;-142.25;100.00;58004.16;5031129;28;20069;-58
2022/12/13 06:15:30;;;;;;;11.10;4.50;;;;;;;-142.25;100.00;58004.16;5026465;28;20040;-59
2022/12/13 06:17:58;;;;;;;17.00;4.30;;;;;;;-142.25;100.00;58004.16;5033679;28;20507;-58
2022/12/13 06:20:24;;;;;;;9.47;4.63;;;;;;;-142.25;100.00;58004.16;5029332;28;20037;-57
2022/12/13 06:22:53;;;;;;;16.23;4.70;;;;;;;-142.25;100.00;58004.16;5032316;28;20150;-57
2022/12/13 06:25:19;;;;;;;10.33;5.97;;;;;;;-142.25;100.00;58004.16;5029294;28;20800;-58
2022/12/13 06:27:44;;;;;;;27.83;10.97;;;;;;;-142.25;100.00;58004.16;5030083;28;20065;-58
2022/12/13 06:30:10;;;;;;;33.47;9.97;;;;;;;-142.25;100.00;58004.16;5033713;28;20045;-58
2022/12/13 06:32:36;;;;;;;30.67;11.87;;;;;;;-142.25;100.00;58004.16;5030164;28;20055;-59
2022/12/13 06:35:02;;;;;;;30.93;12.03;;;;;;;-142.25;100.00;58004.16;5026484;28;20037;-60
2022/12/13 06:37:30;;;;;;;36.73;11.43;;;;;;;-142.25;100.00;58004.16;5028556;28;20440;-57
2022/12/13 06:39:55;;;;;;;23.80;9.67;;;;;;;-142.25;100.00;58004.16;5031791;28;20945;-55
2022/12/13 06:42:21;;;;;;;27.00;9.03;;;;;;;-142.25;100.00;58004.16;5026347;28;20041;-55
2022/12/13 06:44:50;;;;;;;29.77;10.03;;;;;;;-142.25;100.00;58004.16;5028153;28;20480;-52
2022/12/13 06:47:16;;;;;;;18.00;7.10;;;;;;;-142.25;100.00;58004.16;5026210;28;20056;-56
2022/12/13 06:49:42;;;;;;;14.67;7.33;;;;;;;-142.25;100.00;58004.16;5026013;28;20433;-59
2022/12/13 06:52:10;;;;;;;16.50;6.67;;;;;;;-142.25;100.00;58004.16;5025537;28;20401;-58
2022/12/13 06:54:36;;;;;;;17.33;6.50;;;;;;;-142.25;100.00;58004.16;5024449;28;20045;-54
2022/12/13 06:57:01;;;;;;;15.27;6.00;;;;;;;-142.25;100.00;58004.16;5030712;28;20442;-53
2022/12/13 06:59:27;;;;;;;15.73;5.90;;;;;;;-142.25;100.00;58004.16;5027126;28;20557;-54
2022/12/13 07:01:52;;;;;;;15.23;5.63;;;;;;;-142.25;100.00;58004.16;5037059;28;20045;-54
2022/12/13 07:04:18;;;;;;;11.63;5.13;;;;;;;-142.25;100.00;58004.16;5032762;28;20140;-54
2022/12/13 07:06:43;;;;;;;8.43;4.13;;;;;;;-142.25;100.00;58004.16;5026760;28;20098;-55
2022/12/13 07:09:09;;;;;;;12.63;4.17;;;;;;;-142.25;100.00;58004.16;5026205;28;20195;-56
2022/12/13 07:11:34;;;;;;;9.00;4.07;;;;;;;-142.25;100.00;58004.16;5031557;28;20451;-52
2022/12/13 07:14:00;;;;;;;13.77;4.77;;;;;;;-142.25;100.00;58004.16;5031135;28;20148;-55
2022/12/13 07:16:27;;;;;;;13.83;5.83;;;;;;;-142.25;100.00;58004.16;5034076;28;20485;-55
2022/12/13 07:19:00;;;;;;;14.00;5.57;;;;;;;-142.25;100.00;58004.16;5035084;28;20099;-55
2022/12/13 07:21:26;;;;;;;9.17;5.13;;;;;;;-142.25;100.00;58004.16;5033241;28;20045;-54
2022/12/13 07:23:52;;;;;;;13.73;5.10;;;;;;;-142.25;100.00;58004.16;5027921;28;20195;-53
2022/12/13 07:26:18;;;;;;;11.97;5.40;;;;;;;-142.25;100.00;58004.16;5035503;28;21005;-60
2022/12/13 07:28:45;;;;;;;8.93;4.83;;;;;;;-142.25;100.00;58004.16;5034862;28;20046;-54
2022/12/13 07:31:11;;;;;;;14.03;6.37;;;;;;;-142.25;100.00;58004.16;5034815;28;20151;-55
2022/12/13 07:33:38;;;;;;;15.07;7.80;;;;;;;-142.25;100.00;58004.16;5035304;28;20037;-55
2022/12/13 07:36:19;;;;;;;15.43;7.07;;;;;;;-142.25;100.00;58004.16;5032088;28;20041;-55
2022/12/13 07:38:50;;;;;;;18.33;8.67;;;;;;;-142.25;100.00;58004.16;5035160;28;20456;-61
2022/12/13 07:41:16;;;;;;;31.47;11.40;;;;;;;-142.25;100.00;58004.16;5033416;28;20541;-53
2022/12/13 07:43:42;;;;;;;30.27;12.67;;;;;;;-142.25;100.00;58004.16;5030696;28;20137;-56
2022/12/13 07:46:10;;;;;;;33.93;12.47;;;;;;;-142.25;100.00;58004.16;5027481;28;20489;-54
2022/12/13 07:48:35;;;;;;;28.03;11.13;;;;;;;-142.25;100.00;58004.16;5033668;28;20385;-53
2022/12/13 07:51:04;;;;;;;26.57;11.53;;;;;;;-142.25;100.00;58004.16;5031416;28;20411;-55
2022/12/13 07:53:30;;;;;;;34.80;11.20;;;;;;;-142.25;100.00;58004.16;5026479;28;20592;-55
2022/12/13 07:55:56;;;;;;;31.43;12.37;;;;;;;-142.25;100.00;58004.16;5030443;28;20053;-54
2022/12/13 07:58:22;;;;;;;16.97;7.43;;;;;;;-142.25;100.00;58004.16;5031978;28;20041;-54
2022/12/13 08:00:47;;;;;;;16.97;6.80;;;;;;;-142.25;100.00;58004.16;5038034;28;20099;-55
2022/12/13 08:03:15;;;;;;;17.90;7.40;;;;;;;-142.25;100.00;58004.16;5039574;28;20041;-54
2022/12/13 08:05:40;;;;;;;20.90;7.90;;;;;;;-142.25;100.00;58004.16;5030229;28;20507;-53
2022/12/13 08:08:10;;;;;;;18.53;7.50;;;;;;;-142.25;100.00;58004.16;5030827;28;20037;-55
2022/12/13 08:10:36;;;;;;;17.20;7.13;;;;;;;-142.25;100.00;58004.16;5026530;28;20049;-53
2022/12/13 08:13:03;;;;;;;22.63;8.53;;;;;;;-142.25;100.00;58004.16;5028719;28;20053;-55
2022/12/13 08:15:29;;;;;;;25.03;10.07;;;;;;;-142.25;100.00;58004.16;5031253;28;20276;-58
2022/12/13 08:17:56;;;;;;;28.57;11.70;;;;;;;-142.25;100.00;58004.16;5030623;28;20584;-55
2022/12/13 08:20:22;;;;;;;16.13;8.80;;;;;;;-142.25;100.00;58004.16;5031851;28;20077;-53
2022/12/13 08:22:58;;;;;;;15.73;7.07;;;;;;;-142.25;100.00;58004.16;5032306;28;20068;-53
2022/12/13 08:25:24;;;;;;;15.43;7.97;;;;;;;-142.25;100.00;58004.16;5028567;28;20038;-55
2022/12/13 08:27:50;;;;;;;21.23;8.53;;;;;;;-142.25;100.00;58004.16;5025514;28;20045;-54
2022/12/13 08:30:16;;;;;;;33.37;14.60;;;;;;;-142.25;100.00;58004.16;5030591;28;20038;-55
2022/12/13 08:32:42;;;;;;;34.03;13.40;;;;;;;-142.25;100.00;58004.16;5033322;28;20076;-54
2022/12/13 08:35:08;;;;;;;31.80;14.50;;;;;;;-142.25;100.00;58004.16;5028231;28;20040;-55
2022/12/13 08:37:34;;;;;;;30.67;13.83;;;;;;;-142.25;100.00;58004.16;5024735;28;20094;-55
2022/12/13 08:39:59;;;;;;;36.63;13.03;;;;;;;-142.25;100.00;58004.16;5025755;28;20575;-54
2022/12/13 08:42:25;;;;;;;23.30;10.73;;;;;;;-142.25;100.00;58004.16;5026478;28;20041;-55
2022/12/13 08:44:52;;;;;;;17.10;7.17;;;;;;;-142.25;100.00;58004.16;5024308;28;20045;-53
2022/12/13 08:47:23;;;;;;;21.17;7.87;;;;;;;-142.25;100.00;58004.16;5025306;28;20061;-56
2022/12/13 08:49:48;;;;;;;18.20;9.63;;;;;;;-142.25;100.00;58004.16;5027862;28;20744;-54
2022/12/13 08:52:14;;;;;;;16.50;7.87;;;;;;;-142.25;100.00;58004.16;5026442;28;20100;-56
2022/12/13 08:54:40;;;;;;;15.30;8.60;;;;;;;-142.25;100.00;58004.16;5032391;28;20092;-55
2022/12/13 08:57:05;;;;;;;16.07;7.03;;;;;;;-142.25;100.00;58004.16;5031260;28;20081;-55
2022/12/13 08:59:31;;;;;;;21.57;9.30;;;;;;;-142.25;100.00;58004.16;5030933;28;20431;-55
2022/12/13 09:01:56;;;;;;;14.93;7.73;;;;;;;-142.25;100.00;58004.16;5028639;28;20049;-55
2022/12/13 09:04:22;;;;;;;12.20;7.47;;;;;;;-142.25;100.00;58004.16;5025048;28;20631;-57
2022/12/13 09:06:48;;;;;;;9.30;4.90;;;;;;;-142.25;100.00;58004.16;5028503;28;20045;-57
2022/12/13 09:09:13;;;;;;;13.17;5.57;;;;;;;-142.25;100.00;58004.16;5030658;28;20517;-57
2022/12/13 09:11:42;;;;;;;11.30;5.53;;;;;;;-142.25;100.00;58004.16;5023945;28;20056;-58
2022/12/13 09:14:08;;;;;;;10.87;5.20;;;;;;;-142.25;100.00;58004.16;5026536;28;20421;-54
2022/12/13 09:16:35;;;;;;;8.37;5.67;;;;;;;-142.25;100.00;58004.16;5029525;28;20044;-55
2022/12/13 09:19:01;;;;;;;12.47;5.67;;;;;;;-142.25;100.00;58004.16;5031038;28;20392;-54
2022/12/13 09:21:27;;;;;;;9.77;4.67;;;;;;;-142.25;100.00;58004.16;5025700;28;20519;-56
2022/12/13 09:23:53;;;;;;;7.60;4.60;;;;;;;-142.25;100.00;58004.16;5029061;28;20045;-54
2022/12/13 09:26:20;;;;;;;7.90;5.30;;;;;;;-142.25;100.00;58004.16;5036621;28;20041;-57
2022/12/13 09:28:45;;;;;;;10.23;6.33;;;;;;;-142.25;100.00;58004.16;5036132;28;20044;-55
2022/12/13 09:31:14;;;;;;;11.07;5.63;;;;;;;-142.25;100.00;58004.16;5037865;28;20052;-56
2022/12/13 09:33:40;;;;;;;13.27;7.73;;;;;;;-142.25;100.00;58004.16;5038111;28;20465;-58
2022/12/13 09:36:09;;;;;;;13.33;5.63;;;;;;;-142.25;100.00;58004.16;5037577;28;20136;-56
2022/12/13 09:38:35;;;;;;;10.53;5.93;;;;;;;-142.25;100.00;58004.16;5029763;28;20049;-56
2022/12/13 09:41:20;;;;;;;11.93;5.67;;;;;;;-142.25;100.00;58004.16;5029975;28;20041;-56
2022/12/13 09:43:56;;;;;;;8.33;5.00;;;;;;;-142.25;100.00;58004.16;5028555;28;20036;-59
2022/12/13 09:46:29;;;;;;;11.60;5.40;;;;;;;-142.25;100.00;58004.16;5035630;28;20551;-54
2022/12/13 09:48:56;;;;;;;10.07;5.07;;;;;;;-142.25;100.00;58004.16;5035279;28;20094;-54
2022/12/13 09:51:24;;;;;;;25.23;10.20;;;;;;;-142.25;100.00;58004.16;5036041;28;20041;-55
2022/12/13 09:53:51;;;;;;;16.43;5.77;;;;;;;-142.25;100.00;58004.16;5033160;28;20069;-58
2022/12/13 09:56:20;;;;;;;13.80;5.67;;;;;;;-142.25;100.00;58004.16;5035641;28;20140;-54
2022/12/13 09:58:51;;;;;;;10.93;5.47;;;;;;;-142.25;100.00;58004.16;5029201;28;20049;-56
2022/12/13 10:01:18;;;;;;;13.43;5.80;;;;;;;-142.25;100.00;58004.16;5031728;28;20400;-56
2022/12/13 10:03:51;;;;;;;11.77;6.03;;;;;;;-142.25;100.00;58004.16;5036308;28;20127;-56
2022/12/13 10:06:19;;;;;;;14.37;6.10;;;;;;;-142.25;100.00;58004.16;5039431;28;20045;-55
2022/12/13 10:08:53;;;;;;;17.03;6.03;;;;;;;-142.25;100.00;58004.16;5034842;28;20045;-57
2022/12/13 10:11:20;;;;;;;12.27;5.67;;;;;;;-142.25;100.00;58004.16;5035098;28;20045;-60
2022/12/13 10:14:04;;;;;;;13.53;5.33;;;;;;;-142.25;100.00;58004.16;5027518;28;20499;-57
2022/12/13 10:16:35;;;;;;;12.80;6.47;;;;;;;-142.25;100.00;58004.16;5029614;28;20064;-56
2022/12/13 10:19:12;;;;;;;12.27;5.77;;;;;;;-142.25;100.00;58004.16;5032476;28;20029;-56
2022/12/13 10:21:43;;;;;;;14.13;5.83;;;;;;;-142.25;100.00;58004.16;5034701;28;20104;-54
2022/12/13 10:24:19;;;;;;;9.93;6.20;;;;;;;-142.25;100.00;58004.16;5030213;28;20084;-54
2022/12/13 10:26:46;;;;;;;14.20;6.00;;;;;;;-142.25;100.00;58004.16;5028485;28;20495;-54
2022/12/13 10:29:11;;;;;;;14.37;6.03;;;;;;;-142.25;100.00;58004.16;5032435;28;20029;-55
2022/12/13 10:31:50;;;;;;;12.70;6.20;;;;;;;-142.25;100.00;58004.16;5033866;28;20110;-58
2022/12/13 10:34:24;;;;;;;7.43;4.97;;;;;;;-142.25;100.00;58004.16;5034257;28;20128;-55
2022/12/13 10:36:51;;;;;;;8.30;5.30;;;;;;;-142.25;100.00;58004.16;5032287;28;20053;-55
2022/12/13 10:39:38;;;;;;;11.13;5.73;;;;;;;-142.25;100.00;58004.16;5025754;28;20120;-55
2022/12/13 10:42:16;;;;;;;12.93;5.97;;;;;;;-142.25;100.00;58004.16;5029472;28;20392;-55
2022/12/13 10:44:42;;;;;;;12.13;6.57;;;;;;;-142.25;100.00;58004.16;5032670;28;20045;-55
2022/12/13 10:47:23;;;;;;;9.80;6.53;;;;;;;-142.25;100.00;58004.16;5032539;28;20052;-53
2022/12/13 10:49:57;;;;;;;8.97;6.07;;;;;;;-142.25;100.00;58004.16;5034314;28;20048;-55
2022/12/13 10:52:27;;;;;;;8.77;5.60;;;;;;;-142.25;100.00;58004.16;5033849;28;20041;-56
2022/12/13 10:54:54;;;;;;;10.47;5.67;;;;;;;-142.25;100.00;58004.16;5033252;28;20551;-54
2022/12/13 10:57:20;;;;;;;11.33;6.13;;;;;;;-142.25;100.00;58004.16;5032908;28;20087;-54
2022/12/13 10:59:48;;;;;;;9.80;5.93;;;;;;;-142.25;100.00;58004.16;5032844;28;20068;-55
2022/12/13 11:02:35;;;;;;;11.83;6.67;;;;;;;-142.25;100.00;58004.16;5033588;28;20075;-56
2022/12/13 11:05:32;;;;;;;17.67;6.10;;;;;;;-142.25;100.00;58004.16;5033171;28;20052;-55
2022/12/13 11:08:22;;;;;;;14.87;6.70;;;;;;;-142.25;100.00;58004.16;5034397;28;20689;-54
2022/12/13 11:11:03;;;;;;;8.63;5.03;;;;;;;-142.25;100.00;58004.16;5024232;28;20045;-55
2022/12/13 11:13:46;;;;;;;9.70;6.00;;;;;;;-142.25;100.00;58004.16;5029923;28;20078;-55